Flight Track Log - Related Links

Times and Time Zones

All times are in EDT time to prevent confusion due to time zone crossing. See the VH-OJU flight status page for this flight to view local times or setup timezone preferences in your user account.

Time Position Orientation Groundspeed Altitude Reporting Facility
EDT Latitude Longitude Course Direction KTS MPH feet Rate Location/Type
Fri 08:25:00 AM 1.2763 104.1001 125° Southeast  Level Estimated
Fri 08:26:00 AM 1.1969 104.2127 125° Southeast  Level Estimated
Fri 08:27:00 AM 1.1174 104.3253 125° Southeast  Level Estimated
Fri 08:28:00 AM 1.0380 104.4380 125° Southeast  Level Estimated
Fri 08:29:00 AM 0.9585 104.5506 125° Southeast  Level Estimated
Fri 08:30:00 AM 0.8791 104.6632 125° Southeast  Level Estimated
Fri 08:31:00 AM 0.7997 104.7758 125° Southeast  Level Estimated
Fri 08:32:00 AM 0.7202 104.8884 125° Southeast  Level Estimated
Fri 08:33:00 AM 0.6407 105.0010 125° Southeast  Level Estimated
Fri 08:34:00 AM 0.5613 105.1136 125° Southeast  Level Estimated
Fri 08:35:00 AM 0.4818 105.2262 125° Southeast  Level Estimated
Fri 08:36:00 AM 0.4024 105.3387 125° Southeast  Level Estimated
Fri 08:37:00 AM 0.3229 105.4513 125° Southeast  Level Estimated
Fri 08:38:00 AM 0.2435 105.5639 125° Southeast  Level Estimated
Fri 08:39:00 AM 0.1640 105.6765 125° Southeast  Level Estimated
Fri 08:40:00 AM 0.0845 105.7890 125° Southeast  Level Estimated
Fri 08:41:00 AM 0.0050 105.9016 125° Southeast  Level Estimated
Fri 08:42:00 AM -0.0744 106.0142 125° Southeast  Level Estimated
Fri 08:43:00 AM -0.1539 106.1268 125° Southeast  Level Estimated
Fri 08:44:00 AM -0.2334 106.2394 125° Southeast  Level Estimated
Fri 08:45:00 AM -0.3128 106.3520 125° Southeast  Level Estimated
Fri 08:46:00 AM -0.3923 106.4645 125° Southeast  Level Estimated
Fri 08:47:00 AM -0.4717 106.5771 125° Southeast  Level Estimated
Fri 08:48:00 AM -0.5512 106.6897 125° Southeast  Level Estimated
Fri 08:49:00 AM -0.6307 106.8023 125° Southeast  Level Estimated
Fri 08:50:00 AM -0.7101 106.9149 125° Southeast  Level Estimated
Fri 08:51:00 AM -0.7896 107.0275 125° Southeast  Level Estimated
Fri 08:52:00 AM -0.8690 107.1401 125° Southeast  Level Estimated
Fri 08:53:00 AM -0.9485 107.2527 125° Southeast  Level Estimated
Fri 08:54:00 AM -1.0279 107.3653 125° Southeast  Level Estimated
Fri 08:55:00 AM -1.1074 107.4779 125° Southeast  Level Estimated
Fri 08:56:00 AM -1.1868 107.5905 125° Southeast  Level Estimated
Fri 08:57:00 AM -1.2662 107.7032 125° Southeast  Level Estimated
Fri 08:58:00 AM -1.3456 107.8158 125° Southeast  Level Estimated
Fri 08:59:00 AM -1.4251 107.9285 125° Southeast  Level Estimated
Fri 09:00:00 AM -1.5045 108.0411 125° Southeast  Level Estimated
Fri 09:01:00 AM -1.5839 108.1538 125° Southeast  Level Estimated
Fri 09:02:00 AM -1.6633 108.2664 125° Southeast  Level Estimated
Fri 09:03:00 AM -1.7427 108.3791 125° Southeast  Level Estimated
Fri 09:04:00 AM -1.8221 108.4918 125° Southeast  Level Estimated
Fri 09:05:00 AM -1.9015 108.6045 125° Southeast  Level Estimated
Fri 09:06:00 AM -1.9808 108.7172 125° Southeast  Level Estimated
Fri 09:07:00 AM -2.0602 108.8299 125° Southeast  Level Estimated
Fri 09:08:00 AM -2.1395 108.9427 125° Southeast  Level Estimated
Fri 09:09:00 AM -2.2189 109.0554 125° Southeast  Level Estimated
Fri 09:10:00 AM -2.2982 109.1682 125° Southeast  Level Estimated
Fri 09:11:00 AM -2.3776 109.2809 125° Southeast  Level Estimated
Fri 09:12:00 AM -2.4569 109.3937 125° Southeast  Level Estimated
Fri 09:13:00 AM -2.5362 109.5065 125° Southeast  Level Estimated
Fri 09:14:00 AM -2.6155 109.6193 125° Southeast  Level Estimated
Fri 09:15:00 AM -2.6910 109.7267 125° Southeast  Level Estimated
Fri 09:16:00 AM -2.7666 109.8342 125° Southeast  Level Estimated
Fri 09:17:00 AM -2.8421 109.9417 125° Southeast  Level Estimated
Fri 09:18:00 AM -2.9176 110.0492 125° Southeast  Level Estimated
Fri 09:19:00 AM -2.9931 110.1567 125° Southeast  Level Estimated
Fri 09:20:00 AM -3.0685 110.2642 125° Southeast  Level Estimated
Fri 09:21:00 AM -3.1440 110.3718 125° Southeast  Level Estimated
Fri 09:22:00 AM -3.2195 110.4793 125° Southeast  Level Estimated
Fri 09:23:00 AM -3.2949 110.5869 125° Southeast  Level Estimated
Fri 09:24:00 AM -3.3703 110.6945 125° Southeast  Level Estimated
Fri 09:25:00 AM -3.4457 110.8021 125° Southeast  Level Estimated
Fri 09:26:00 AM -3.5212 110.9098 125° Southeast  Level Estimated
Fri 09:27:00 AM -3.5966 111.0174 125° Southeast  Level Estimated
Fri 09:28:00 AM -3.6719 111.1251 125° Southeast  Level Estimated
Fri 09:29:00 AM -3.7473 111.2327 125° Southeast  Level Estimated
Fri 09:30:00 AM -3.8227 111.3404 125° Southeast  Level Estimated
Fri 09:31:00 AM -3.8980 111.4482 125° Southeast  Level Estimated
Fri 09:32:00 AM -3.9733 111.5559 125° Southeast  Level Estimated
Fri 09:33:00 AM -4.0487 111.6637 125° Southeast  Level Estimated
Fri 09:34:00 AM -4.1240 111.7714 125° Southeast  Level Estimated
Fri 09:35:00 AM -4.1993 111.8792 125° Southeast  Level Estimated
Fri 09:36:00 AM -4.2745 111.9871 125° Southeast  Level Estimated
Fri 09:37:00 AM -4.3498 112.0949 125° Southeast  Level Estimated
Fri 09:38:00 AM -4.4250 112.2028 125° Southeast  Level Estimated
Fri 09:39:00 AM -4.5002 112.3106 125° Southeast  Level Estimated
Fri 09:40:00 AM -4.5755 112.4185 125° Southeast  Level Estimated
Fri 09:41:00 AM -4.6507 112.5265 125° Southeast  Level Estimated
Fri 09:42:00 AM -4.7258 112.6344 125° Southeast  Level Estimated
Fri 09:43:00 AM -4.8010 112.7424 125° Southeast  Level Estimated
Fri 09:44:00 AM -4.8761 112.8504 125° Southeast  Level Estimated
Fri 09:45:00 AM -4.9513 112.9584 125° Southeast  Level Estimated
Fri 09:46:00 AM -5.0264 113.0665 125° Southeast  Level Estimated
Fri 09:47:00 AM -5.1015 113.1745 125° Southeast  Level Estimated
Fri 09:48:00 AM -5.1765 113.2826 125° Southeast  Level Estimated
Fri 09:49:00 AM -5.2516 113.3907 125° Southeast  Level Estimated
Fri 09:50:00 AM -5.3266 113.4989 125° Southeast  Level Estimated
Fri 09:51:00 AM -5.4016 113.6071 125° Southeast  Level Estimated
Fri 09:52:00 AM -5.4767 113.7153 125° Southeast  Level Estimated
Fri 09:53:00 AM -5.5516 113.8235 125° Southeast  Level Estimated
Fri 09:54:00 AM -5.6266 113.9317 125° Southeast  Level Estimated
Fri 09:55:00 AM -5.7015 114.0400 125° Southeast  Level Estimated
Fri 09:56:00 AM -5.7765 114.1483 125° Southeast  Level Estimated
Fri 09:57:00 AM -5.8513 114.2567 125° Southeast  Level Estimated
Fri 09:58:00 AM -5.9262 114.3651 125° Southeast  Level Estimated
Fri 09:59:00 AM -6.0011 114.4734 125° Southeast  Level Estimated
Fri 09:59:17 AM -5.8220 112.7350 125° Southeast 483 556 35,000  Level FlightAware ADS-B
Fri 10:00:00 AM -6.0759 114.5819 125° Southeast  Level Estimated
Fri 10:00:02 AM -5.8840 112.8140 128° Southeast 484 557 35,000  Level FlightAware ADS-B
Fri 10:00:43 AM -5.9370 112.8840 127° Southeast 485 558 35,000  Level FlightAware ADS-B
Fri 10:02:25 AM -6.0730 113.0610 128° Southeast 484 557 35,000  Level FlightAware ADS-B
Fri 10:03:02 AM -6.1150 113.1180 127° Southeast 484 557 35,000  Level FlightAware ADS-B
Fri 10:03:47 AM -6.1920 113.2160 128° Southeast 482 555 35,000  Level FlightAware ADS-B
Fri 10:04:32 AM -6.2550 113.2960 128° Southeast 484 557 35,000  Level FlightAware ADS-B
Fri 10:05:07 AM -6.3130 113.3550 135° Southeast 488 562 35,000  Level FlightAware ADS-B
Fri 10:05:52 AM -6.3910 113.4220 140° Southeast 491 565 35,000  Level FlightAware ADS-B
Fri 10:06:37 AM -6.4670 113.4850 141° Southeast 494 568 35,000  Level FlightAware ADS-B
Fri 10:07:30 AM -6.5620 113.5670 139° Southeast 495 570 35,000  Level FlightAware ADS-B
Fri 10:08:10 AM -6.6330 113.6260 140° Southeast 496 571 35,000  Level FlightAware ADS-B
Fri 10:08:55 AM -6.7100 113.6910 140° Southeast 496 571 35,000  Level FlightAware ADS-B
Fri 10:09:35 AM -6.7800 113.7510 140° Southeast 495 570 35,000  Level FlightAware ADS-B
Fri 10:10:35 AM -6.8730 113.8290 140° Southeast 493 567 35,000  Level FlightAware ADS-B
Fri 10:10:55 AM -6.9140 113.8650 139° Southeast 493 567 35,000  Level FlightAware ADS-B
Fri 10:11:50 AM -7.0100 113.9450 140° Southeast 495 570 35,000  Level FlightAware ADS-B
Fri 10:12:34 AM -7.0830 114.0090 139° Southeast 495 570 35,000  Level FlightAware ADS-B
Fri 10:13:11 AM -7.1370 114.0560 139° Southeast 495 570 35,000  Level FlightAware ADS-B
Fri 10:13:56 AM -7.2310 114.1340 141° Southeast 487 560 35,000  Level FlightAware ADS-B
Fri 10:14:43 AM -7.3160 114.2050 140° Southeast 488 562 35,000  Level FlightAware ADS-B
Fri 10:15:24 AM -7.3760 114.2580 139° Southeast 489 563 35,000  Level FlightAware ADS-B
Fri 10:16:03 AM -7.4540 114.3230 140° Southeast 485 558 35,000  Level FlightAware ADS-B
Fri 10:16:42 AM -7.5100 114.3720 139° Southeast 485 558 35,000  Level FlightAware ADS-B
Fri 10:17:25 AM -7.5970 114.4440 141° Southeast 488 562 35,000  Level FlightAware ADS-B
Fri 10:18:26 AM -7.6940 114.5270 140° Southeast 488 562 35,000  Level FlightAware ADS-B
Fri 10:19:09 AM -7.7780 114.5980 140° Southeast 490 564 35,000  Level FlightAware ADS-B
Fri 10:19:49 AM -7.8480 114.6590 139° Southeast 490 564 35,000  Level FlightAware ADS-B
Fri 10:20:33 AM -7.9240 114.7220 141° Southeast 490 564 35,000  Level FlightAware ADS-B
Fri 10:21:14 AM -7.9960 114.7850 139° Southeast 490 564 35,000  Level FlightAware ADS-B
Fri 10:21:55 AM -8.0660 114.8440 140° Southeast 490 564 35,000  Level FlightAware ADS-B
Fri 10:22:40 AM -8.1250 114.8940 140° Southeast 490 564 35,000  Level FlightAware ADS-B
Fri 10:23:21 AM -8.2150 114.9710 140° Southeast 489 563 35,000  Level FlightAware ADS-B
Fri 10:24:03 AM -8.2890 115.0340 140° Southeast 492 566 35,000  Level FlightAware ADS-B
Fri 10:24:45 AM -8.3620 115.0960 140° Southeast 495 570 35,000  Level FlightAware ADS-B
Fri 10:25:23 AM -8.4290 115.1540 139° Southeast 497 572 35,000  Level FlightAware ADS-B
Fri 10:26:08 AM -8.5090 115.2230 140° Southeast 496 571 35,000  Level FlightAware ADS-B
Fri 10:26:47 AM -8.5750 115.2800 140° Southeast 496 571 35,000  Level FlightAware ADS-B
Fri 10:27:33 AM -8.6580 115.3510 140° Southeast 495 570 35,000  Level FlightAware ADS-B
Fri 10:28:15 AM -8.7300 115.4120 140° Southeast 495 570 35,000  Level FlightAware ADS-B
Fri 10:28:55 AM -8.8010 115.4730 140° Southeast 495 570 35,000  Level FlightAware ADS-B
Fri 10:29:37 AM -8.8740 115.5360 140° Southeast 497 572 35,000  Level FlightAware ADS-B
Fri 10:30:21 AM -8.9510 115.6030 139° Southeast 499 574 35,000  Level FlightAware ADS-B
Fri 10:31:02 AM -9.0220 115.6630 140° Southeast 498 573 35,000  Level FlightAware ADS-B
Fri 10:31:44 AM -9.0980 115.7280 140° Southeast 497 572 35,000  Level FlightAware ADS-B
Fri 10:32:24 AM -9.1690 115.7890 140° Southeast 497 572 35,000  Level FlightAware ADS-B
Fri 10:33:10 AM -9.2490 115.8580 140° Southeast 497 572 35,000  Level FlightAware ADS-B
Fri 10:33:50 AM -9.3200 115.9190 140° Southeast 497 572 35,000  Level FlightAware ADS-B
Fri 10:34:30 AM -9.3910 115.9790 140° Southeast 495 570 35,000  Level FlightAware ADS-B
Fri 10:35:12 AM -9.4640 116.0430 139° Southeast 495 570 35,000  Level FlightAware ADS-B
Fri 10:35:54 AM -9.5460 116.0940 148° Southeast 500 575 35,000  Level FlightAware ADS-B
Fri 10:36:38 AM -9.6420 116.1240 163° South 500 575 35,000  Level FlightAware ADS-B
Fri 10:37:35 AM -9.7680 116.1620 163° South 501 577 35,000  Level FlightAware ADS-B
Fri 10:38:33 AM -9.8900 116.2020 162° South 502 578 35,000  Level FlightAware ADS-B
Fri 10:39:09 AM -9.9580 116.2250 162° South 502 578 35,000  Level FlightAware ADS-B
Fri 10:39:54 AM -10.0600 116.2720 156° South 499 574 35,000  Level FlightAware ADS-B
Fri 10:40:47 AM -10.1650 116.3130 159° South 498 573 35,000  Level FlightAware ADS-B
Fri 10:41:35 AM -10.2520 116.3490 158° South 498 573 35,000  Level FlightAware ADS-B
Fri 10:42:11 AM -10.3180 116.3760 158° South 498 573 35,000  Level FlightAware ADS-B
Fri 10:43:02 AM -10.4100 116.4140 158° South 498 573 35,000  Level FlightAware ADS-B
Fri 10:43:51 AM -10.4990 116.4510 158° South 498 573 35,000  Level FlightAware ADS-B
Fri 10:44:28 AM -10.5660 116.4780 158° South 498 573 35,000  Level FlightAware ADS-B
Fri 10:45:16 AM -10.6540 116.5140 158° South 498 573 35,000  Level FlightAware ADS-B
Fri 10:46:14 AM -10.7590 116.5570 158° South 498 573 35,000  Level FlightAware ADS-B
Fri 10:46:51 AM -10.8260 116.5850 158° South 498 573 35,000  Level FlightAware ADS-B
Fri 10:47:38 AM -10.9110 116.6200 158° South 498 573 35,000  Level FlightAware ADS-B
Fri 10:48:12 AM -10.9730 116.6460 158° South 498 573 35,000  Level FlightAware ADS-B
Fri 10:48:58 AM -11.0570 116.6800 158° South 498 573 35,000  Level FlightAware ADS-B
Fri 10:49:35 AM -11.1240 116.7080 158° South 498 573 35,000 16 Level FlightAware ADS-B
Fri 10:52:00 AM -11.2860 116.9860 121° Southeast  Level Estimated
Fri 10:53:00 AM -11.3530 117.1011 121° Southeast  Level Estimated
Fri 10:54:00 AM -11.4199 117.2163 121° Southeast  Level Estimated
Fri 10:55:00 AM -11.4868 117.3315 121° Southeast  Level Estimated
Fri 10:56:00 AM -11.5536 117.4468 121° Southeast  Level Estimated
Fri 10:57:00 AM -11.6204 117.5622 121° Southeast  Level Estimated
Fri 10:58:00 AM -11.6871 117.6776 121° Southeast  Level Estimated
Fri 10:59:00 AM -11.7538 117.7930 121° Southeast  Level Estimated
Fri 11:00:00 AM -11.8204 117.9085 121° Southeast  Level Estimated
Fri 11:01:00 AM -11.8870 118.0241 121° Southeast  Level Estimated
Fri 11:02:00 AM -11.9536 118.1397 120° Southeast  Level Estimated
Fri 11:03:00 AM -12.0201 118.2554 120° Southeast  Level Estimated
Fri 11:04:00 AM -12.0865 118.3711 120° Southeast  Level Estimated
Fri 11:05:00 AM -12.1530 118.4869 120° Southeast  Level Estimated
Fri 11:06:00 AM -12.2193 118.6028 120° Southeast  Level Estimated
Fri 11:07:00 AM -12.2856 118.7187 120° Southeast  Level Estimated
Fri 11:08:00 AM -12.3519 118.8347 120° Southeast  Level Estimated
Fri 11:09:00 AM -12.4181 118.9507 120° Southeast  Level Estimated
Fri 11:10:00 AM -12.4843 119.0668 120° Southeast  Level Estimated
Fri 11:11:00 AM -12.5504 119.1829 120° Southeast  Level Estimated
Fri 11:12:00 AM -12.6164 119.2991 120° Southeast  Level Estimated
Fri 11:13:00 AM -12.6824 119.4154 120° Southeast  Level Estimated
Fri 11:14:00 AM -12.7484 119.5317 120° Southeast  Level Estimated
Fri 11:15:00 AM -12.8143 119.6481 120° Southeast  Level Estimated
Fri 11:16:00 AM -12.8802 119.7646 120° Southeast  Level Estimated
Fri 11:17:00 AM -12.9460 119.8811 120° Southeast  Level Estimated
Fri 11:18:00 AM -13.0117 119.9977 120° Southeast  Level Estimated
Fri 11:19:00 AM -13.0774 120.1143 120° Southeast  Level Estimated
Fri 11:20:00 AM -13.1431 120.2310 120° Southeast  Level Estimated
Fri 11:21:00 AM -13.2087 120.3477 120° Southeast  Level Estimated
Fri 11:22:00 AM -13.2742 120.4646 120° Southeast  Level Estimated
Fri 11:23:00 AM -13.3397 120.5814 120° Southeast  Level Estimated
Fri 11:24:00 AM -13.4052 120.6984 120° Southeast  Level Estimated
Fri 11:25:00 AM -13.4705 120.8154 120° Southeast  Level Estimated
Fri 11:26:00 AM -13.5359 120.9325 120° Southeast  Level Estimated
Fri 11:27:00 AM -13.6012 121.0496 120° Southeast  Level Estimated
Fri 11:28:00 AM -13.6664 121.1668 120° Southeast  Level Estimated
Fri 11:29:00 AM -13.7316 121.2841 120° Southeast  Level Estimated
Fri 11:30:00 AM -13.7967 121.4014 120° Southeast  Level Estimated
Fri 11:31:00 AM -13.8617 121.5188 120° Southeast  Level Estimated
Fri 11:32:00 AM -13.9267 121.6363 120° Southeast  Level Estimated
Fri 11:33:00 AM -13.9917 121.7538 120° Southeast  Level Estimated
Fri 11:34:00 AM -14.0566 121.8714 120° Southeast  Level Estimated
Fri 11:35:00 AM -14.1214 121.9891 120° Southeast  Level Estimated
Fri 11:36:00 AM -14.1861 122.1068 120° Southeast  Level Estimated
Fri 11:37:00 AM -14.2509 122.2246 120° Southeast  Level Estimated
Fri 11:38:00 AM -14.3155 122.3425 120° Southeast  Level Estimated
Fri 11:39:00 AM -14.3801 122.4604 119° Southeast  Level Estimated
Fri 11:40:00 AM -14.4447 122.5784 119° Southeast  Level Estimated
Fri 11:41:00 AM -14.5091 122.6964 119° Southeast  Level Estimated
Fri 11:42:00 AM -14.5736 122.8146 119° Southeast  Level Estimated
Fri 11:43:00 AM -14.6379 122.9328 119° Southeast  Level Estimated
Fri 11:44:00 AM -14.7022 123.0511 119° Southeast  Level Estimated
Fri 11:45:00 AM -14.7665 123.1694 119° Southeast  Level Estimated
Fri 11:46:00 AM -14.8307 123.2878 119° Southeast  Level Estimated
Fri 11:47:00 AM -14.8948 123.4063 119° Southeast  Level Estimated
Fri 11:48:00 AM -14.9588 123.5249 119° Southeast  Level Estimated
Fri 11:49:00 AM -15.0228 123.6435 119° Southeast  Level Estimated
Fri 11:50:00 AM -15.0868 123.7622 119° Southeast  Level Estimated
Fri 11:51:00 AM -15.1507 123.8810 119° Southeast  Level Estimated
Fri 11:52:00 AM -15.2145 123.9998 119° Southeast  Level Estimated
Fri 11:53:00 AM -15.2782 124.1188 119° Southeast  Level Estimated
Fri 11:54:00 AM -15.3419 124.2377 119° Southeast  Level Estimated
Fri 11:55:00 AM -15.4055 124.3568 119° Southeast  Level Estimated
Fri 11:56:00 AM -15.4691 124.4759 119° Southeast  Level Estimated
Fri 11:57:00 AM -15.5326 124.5951 119° Southeast  Level Estimated
Fri 11:58:00 AM -15.5960 124.7144 119° Southeast  Level Estimated
Fri 11:59:00 AM -15.6594 124.8338 119° Southeast  Level Estimated
Fri 12:00:00 PM -15.7227 124.9532 119° Southeast  Level Estimated
Fri 12:01:00 PM -15.7860 125.0727 119° Southeast  Level Estimated
Fri 12:02:00 PM -15.8491 125.1923 119° Southeast  Level Estimated
Fri 12:03:00 PM -15.9122 125.3119 119° Southeast  Level Estimated
Fri 12:04:00 PM -15.9753 125.4316 119° Southeast  Level Estimated
Fri 12:05:00 PM -16.0383 125.5514 119° Southeast  Level Estimated
Fri 12:06:00 PM -16.1012 125.6713 119° Southeast  Level Estimated
Fri 12:07:00 PM -16.1640 125.7913 119° Southeast  Level Estimated
Fri 12:08:00 PM -16.2268 125.9113 119° Southeast  Level Estimated
Fri 12:09:00 PM -16.2895 126.0314 119° Southeast  Level Estimated
Fri 12:10:00 PM -16.3522 126.1516 119° Southeast  Level Estimated
Fri 12:11:00 PM -16.4147 126.2718 118° Southeast  Level Estimated
Fri 12:12:00 PM -16.4773 126.3922 118° Southeast  Level Estimated
Fri 12:13:00 PM -16.5397 126.5126 118° Southeast  Level Estimated
Fri 12:14:00 PM -16.6021 126.6331 118° Southeast  Level Estimated
Fri 12:15:00 PM -16.6644 126.7536 118° Southeast  Level Estimated
Fri 12:16:00 PM -16.7266 126.8743 118° Southeast  Level Estimated
Fri 12:17:00 PM -16.7888 126.9950 118° Southeast  Level Estimated
Fri 12:18:00 PM -16.8508 127.1158 118° Southeast  Level Estimated
Fri 12:19:00 PM -16.9129 127.2367 118° Southeast  Level Estimated
Fri 12:20:00 PM -16.9748 127.3577 118° Southeast  Level Estimated
Fri 12:21:00 PM -17.0367 127.4787 118° Southeast  Level Estimated
Fri 12:22:00 PM -17.0985 127.5998 118° Southeast  Level Estimated
Fri 12:23:00 PM -17.1602 127.7210 118° Southeast  Level Estimated
Fri 12:24:00 PM -17.2219 127.8423 118° Southeast  Level Estimated
Fri 12:25:00 PM -17.2835 127.9637 118° Southeast  Level Estimated
Fri 12:26:00 PM -17.3450 128.0851 118° Southeast  Level Estimated
Fri 12:27:00 PM -17.4065 128.2067 118° Southeast  Level Estimated
Fri 12:28:00 PM -17.4678 128.3283 118° Southeast  Level Estimated
Fri 12:29:00 PM -17.5291 128.4500 118° Southeast  Level Estimated
Fri 12:30:00 PM -17.5903 128.5717 118° Southeast  Level Estimated
Fri 12:31:00 PM -17.6515 128.6936 118° Southeast  Level Estimated
Fri 12:32:00 PM -17.7125 128.8155 118° Southeast  Level Estimated
Fri 12:33:00 PM -17.7736 128.9376 118° Southeast  Level Estimated
Fri 12:34:00 PM -17.8345 129.0597 118° Southeast  Level Estimated
Fri 12:35:00 PM -17.8953 129.1819 118° Southeast  Level Estimated
Fri 12:36:00 PM -17.9561 129.3041 118° Southeast  Level Estimated
Fri 12:37:00 PM -18.0168 129.4265 118° Southeast  Level Estimated
Fri 12:38:00 PM -18.0774 129.5489 118° Southeast  Level Estimated
Fri 12:39:00 PM -18.1379 129.6715 117° Southeast  Level Estimated
Fri 12:40:00 PM -18.1984 129.7941 117° Southeast  Level Estimated
Fri 12:41:00 PM -18.2588 129.9168 117° Southeast  Level Estimated
Fri 12:42:00 PM -18.3191 130.0396 117° Southeast  Level Estimated
Fri 12:43:00 PM -18.3793 130.1624 117° Southeast  Level Estimated
Fri 12:44:00 PM -18.4394 130.2854 117° Southeast  Level Estimated
Fri 12:45:00 PM -18.4995 130.4084 117° Southeast  Level Estimated
Fri 12:46:00 PM -18.5595 130.5315 117° Southeast  Level Estimated
Fri 12:47:00 PM -18.6194 130.6548 117° Southeast  Level Estimated
Fri 12:48:00 PM -18.6792 130.7780 117° Southeast  Level Estimated
Fri 12:49:00 PM -18.7390 130.9014 117° Southeast  Level Estimated
Fri 12:50:00 PM -18.7987 131.0249 117° Southeast  Level Estimated
Fri 12:50:37 PM -22.2530 131.2140 117° Southeast 538 619 37,000  Level FlightAware ADS-B
Fri 12:51:00 PM -18.8582 131.1485 117° Southeast  Level Estimated
Fri 12:51:22 PM -22.3110 131.3110 123° Southeast 538 619 37,000  Level FlightAware ADS-B
Fri 12:52:01 PM -22.3670 131.4070 122° Southeast 539 620 37,000  Level FlightAware ADS-B
Fri 12:52:46 PM -22.4260 131.5070 123° Southeast 539 620 37,000  Level FlightAware ADS-B
Fri 12:53:25 PM -22.4790 131.5960 123° Southeast 540 621 37,000  Level FlightAware ADS-B
Fri 12:54:11 PM -22.5400 131.7010 122° Southeast 540 621 37,000  Level FlightAware ADS-B
Fri 12:54:49 PM -22.5900 131.7850 123° Southeast 540 621 37,000  Level FlightAware ADS-B
Fri 12:55:31 PM -22.6490 131.8860 122° Southeast 541 623 37,000  Level FlightAware ADS-B
Fri 12:56:14 PM -22.7050 131.9820 122° Southeast 542 624 37,000  Level FlightAware ADS-B
Fri 12:56:45 PM -22.7470 132.0530 123° Southeast 543 625 37,000  Level FlightAware ADS-B
Fri 12:57:25 PM -22.8010 132.1450 122° Southeast 544 626 37,000  Level FlightAware ADS-B
Fri 12:58:08 PM -22.8580 132.2450 122° Southeast 544 626 37,000  Level FlightAware ADS-B
Fri 12:59:05 PM -22.9360 132.3790 122° Southeast 544 626 37,000  Level FlightAware ADS-B
Fri 12:59:43 PM -22.9860 132.4640 123° Southeast 545 627 37,000  Level FlightAware ADS-B
Fri 01:00:25 PM -23.0420 132.5620 122° Southeast 547 629 37,000  Level FlightAware ADS-B
Fri 01:01:11 PM -23.1040 132.6690 122° Southeast 546 628 37,000  Level FlightAware ADS-B
Fri 01:01:54 PM -23.1610 132.7690 122° Southeast 547 629 37,000  Level FlightAware ADS-B
Fri 01:02:32 PM -23.2130 132.8580 122° Southeast 547 629 37,000  Level FlightAware ADS-B
Fri 01:03:08 PM -23.2610 132.9420 122° Southeast 548 631 37,000  Level FlightAware ADS-B
Fri 01:03:59 PM -23.3300 133.0640 122° Southeast 548 631 37,000  Level FlightAware ADS-B
Fri 01:04:37 PM -23.3800 133.1500 122° Southeast 549 632 37,000  Level FlightAware ADS-B
Fri 01:05:52 PM -23.4670 133.3030 122° Southeast 547 629 37,000  Level FlightAware ADS-B
Fri 01:06:34 PM -23.5370 133.4250 122° Southeast 548 631 37,000  Level FlightAware ADS-B
Fri 01:07:17 PM -23.5940 133.5260 122° Southeast 548 631 37,000  Level FlightAware ADS-B
Fri 01:07:58 PM -23.6480 133.6220 122° Southeast 546 628 37,000  Level FlightAware ADS-B
Fri 01:08:42 PM -23.7070 133.7260 122° Southeast 546 628 37,000  Level FlightAware ADS-B
Fri 01:09:21 PM -23.7570 133.8150 122° Southeast 547 629 37,000  Level FlightAware ADS-B
Fri 01:09:58 PM -23.7980 133.9100 115° Southeast 549 632 37,000  Level FlightAware ADS-B
Fri 01:10:48 PM -23.8320 134.0400 106° East 548 631 37,000  Level FlightAware ADS-B
Fri 01:11:29 PM -23.8590 134.1530 105° East 548 631 37,000  Level FlightAware ADS-B
Fri 01:12:08 PM -23.8830 134.2580 104° East 547 629 37,000  Level FlightAware ADS-B
Fri 01:12:54 PM -23.9120 134.3780 105° East 548 631 37,000  Level FlightAware ADS-B
Fri 01:13:36 PM -23.9390 134.4940 104° East 549 632 37,000  Level FlightAware ADS-B
Fri 01:14:17 PM -23.9650 134.6040 105° East 550 633 37,000  Level FlightAware ADS-B
Fri 01:14:58 PM -23.9910 134.7140 105° East 551 634 37,000  Level FlightAware ADS-B
Fri 01:15:40 PM -24.0170 134.8270 104° East 550 633 37,000  Level FlightAware ADS-B
Fri 01:16:23 PM -24.0450 134.9460 104° East 549 632 37,000  Level FlightAware ADS-B
Fri 01:17:04 PM -24.0700 135.0540 104° East 550 633 37,000  Level FlightAware ADS-B
Fri 01:17:48 PM -24.0980 135.1730 104° East 550 633 37,000  Level FlightAware ADS-B
Fri 01:18:29 PM -24.1190 135.2670 104° East 549 632 37,000  Level FlightAware ADS-B
Fri 01:19:12 PM -24.1490 135.3990 104° East 549 632 37,000  Level FlightAware ADS-B
Fri 01:19:51 PM -24.1740 135.5070 104° East 549 632 37,000  Level FlightAware ADS-B
Fri 01:20:50 PM -24.2090 135.6630 104° East 550 633 37,000  Level FlightAware ADS-B
Fri 01:21:31 PM -24.2350 135.7770 104° East 551 634 37,000  Level FlightAware ADS-B
Fri 01:22:11 PM -24.2590 135.8820 104° East 551 634 37,000  Level FlightAware ADS-B
Fri 01:22:56 PM -24.2870 136.0040 104° East 550 633 37,000  Level FlightAware ADS-B
Fri 01:23:34 PM -24.3100 136.1070 104° East 550 633 37,000  Level FlightAware ADS-B
Fri 01:24:19 PM -24.3370 136.2290 104° East 549 632 37,000  Level FlightAware ADS-B
Fri 01:25:00 PM -24.3610 136.3370 104° East 549 632 37,000  Level FlightAware ADS-B
Fri 01:26:24 PM -24.4120 136.5680 104° East 550 633 37,000  Level FlightAware ADS-B
Fri 01:27:05 PM -24.4360 136.6790 103° East 551 634 37,000  Level FlightAware ADS-B
Fri 01:27:49 PM -24.4630 136.7990 104° East 551 634 37,000  Level FlightAware ADS-B
Fri 01:28:30 PM -24.4860 136.9070 103° East 551 634 37,000  Level FlightAware ADS-B
Fri 01:29:14 PM -24.5130 137.0300 104° East 551 634 37,000  Level FlightAware ADS-B
Fri 01:29:56 PM -24.5380 137.1470 103° East 550 633 37,000  Level FlightAware ADS-B
Fri 01:30:48 PM -24.5600 137.2500 103° East 549 632 37,000  Level FlightAware ADS-B
Fri 01:31:35 PM -24.5940 137.4100 103° East 546 628 37,000  Level FlightAware ADS-B
Fri 01:32:12 PM -24.6150 137.5070 103° East 547 629 37,000  Level FlightAware ADS-B
Fri 01:33:13 PM -24.6480 137.6640 103° East 548 631 37,000  Level FlightAware ADS-B
Fri 01:33:48 PM -24.6650 137.7450 103° East 548 631 37,000  Level FlightAware ADS-B
Fri 01:34:36 PM -24.6880 137.8560 103° East 548 631 37,000  Level FlightAware ADS-B
Fri 01:35:32 PM -24.7150 137.9850 103° East 548 631 37,000  Level FlightAware ADS-B
Fri 01:36:09 PM -24.7330 138.0710 103° East 548 631 37,000  Level FlightAware ADS-B
Fri 01:36:55 PM -24.7560 138.1770 103° East 548 631 37,000  Level FlightAware ADS-B
Fri 01:37:32 PM -24.7740 138.2630 103° East 548 631 37,000  Level FlightAware ADS-B
Fri 01:38:36 PM -24.8050 138.4110 103° East 548 631 37,000  Level FlightAware ADS-B
Fri 01:39:10 PM -24.8210 138.4890 103° East 548 631 37,000  Level FlightAware ADS-B
Fri 01:39:56 PM -24.8430 138.5960 103° East 548 631 37,000  Level FlightAware ADS-B
Fri 01:40:55 PM -24.8720 138.7320 103° East 548 631 37,000  Level FlightAware ADS-B
Fri 01:41:29 PM -24.8880 138.8110 103° East 548 631 37,000  Level FlightAware ADS-B
Fri 01:42:17 PM -24.9120 138.9220 103° East 548 631 37,000  Level FlightAware ADS-B
Fri 01:42:53 PM -24.9290 139.0060 103° East 548 631 37,000  Level FlightAware ADS-B
Fri 01:43:42 PM -24.9530 139.1190 103° East 548 631 37,000  Level FlightAware ADS-B
Fri 01:44:18 PM -24.9700 139.2020 103° East 548 631 37,000  Level FlightAware ADS-B
Fri 01:45:07 PM -24.9940 139.3160 103° East 548 631 37,000  Level FlightAware ADS-B
Fri 01:45:43 PM -25.0110 139.3990 103° East 548 631 37,000  Level FlightAware ADS-B
Fri 01:46:29 PM -25.0340 139.5060 103° East 548 631 37,000  Level FlightAware ADS-B
Fri 01:47:06 PM -25.0520 139.5920 103° East 548 631 37,000 308 Level FlightAware ADS-B
Fri 01:49:00 PM -25.1114 139.8594 104° East  Level Estimated
Fri 01:50:00 PM -25.1424 140.0003 104° East  Level Estimated
Fri 01:51:00 PM -25.1733 140.1412 104° East  Level Estimated
Fri 01:52:00 PM -25.2041 140.2822 104° East  Level Estimated
Fri 01:52:58 PM -25.3030 140.9490 104° East 559 643 39,000  Level FlightAware ADS-B
Fri 01:53:00 PM -25.2348 140.4233 104° East  Level Estimated
Fri 01:53:41 PM -25.3240 141.0590 102° East 559 643 39,000  Level FlightAware ADS-B
Fri 01:54:27 PM -25.3500 141.1980 102° East 559 643 39,000  Level FlightAware ADS-B
Fri 01:55:07 PM -25.3700 141.3080 101° East 559 643 39,000  Level FlightAware ADS-B
Fri 01:55:34 PM -25.3810 141.3720 101° East 559 643 39,000  Level FlightAware ADS-B
Fri 01:56:14 PM -25.4030 141.4870 102° East 559 643 39,000  Level FlightAware ADS-B
Fri 01:56:55 PM -25.4200 141.5850 101° East 559 643 39,000  Level FlightAware ADS-B
Fri 01:57:41 PM -25.4490 141.7390 102° East 559 643 39,000  Level FlightAware ADS-B
Fri 01:58:21 PM -25.4690 141.8510 101° East 559 643 39,000  Level FlightAware ADS-B
Fri 01:59:05 PM -25.4910 141.9750 101° East 559 643 39,000  Level FlightAware ADS-B
Fri 01:59:45 PM -25.5110 142.0870 101° East 559 643 39,000  Level FlightAware ADS-B
Fri 02:02:00 PM -25.5779 142.4058 103° East  Level Estimated
Fri 02:03:00 PM -25.6075 142.5476 103° East  Level Estimated
Fri 02:03:45 PM -25.6300 142.7560 103° East 558 642 39,000  Level FlightAware ADS-B
Fri 02:04:29 PM -25.6520 142.8880 101° East 558 642 39,000  Level FlightAware ADS-B
Fri 02:05:10 PM -25.6720 143.0000 101° East 558 642 39,000  Level FlightAware ADS-B
Fri 02:05:54 PM -25.6930 143.1240 101° East 557 641 39,000  Level FlightAware ADS-B
Fri 02:06:35 PM -25.7130 143.2420 101° East 557 641 39,000  Level FlightAware ADS-B
Fri 02:07:19 PM -25.7340 143.3620 101° East 556 640 39,000  Level FlightAware ADS-B
Fri 02:07:59 PM -25.7530 143.4740 101° East 556 640 39,000  Level FlightAware ADS-B
Fri 02:08:39 PM -25.7720 143.5860 101° East 557 641 39,000  Level FlightAware ADS-B
Fri 02:09:07 PM -25.7850 143.6680 100° East 558 642 39,000  Level FlightAware ADS-B
Fri 02:09:53 PM -25.8060 143.7940 101° East 559 643 39,000  Level FlightAware ADS-B
Fri 02:10:29 PM -25.8180 143.8680 100° East 560 644 39,000  Level FlightAware ADS-B
Fri 02:11:17 PM -25.8460 144.0310 101° East 560 644 39,000  Level FlightAware ADS-B
Fri 02:11:57 PM -25.8640 144.1450 100° East 560 644 39,000  Level FlightAware ADS-B
Fri 02:12:37 PM -25.8830 144.2580 101° East 560 644 39,000  Level FlightAware ADS-B
Fri 02:13:23 PM -25.9040 144.3880 100° East 560 644 39,000  Level FlightAware ADS-B
Fri 02:14:01 PM -25.9200 144.4900 100° East 560 644 39,000  Level FlightAware ADS-B
Fri 02:14:45 PM -25.9410 144.6230 100° East 560 644 39,000  Level FlightAware ADS-B
Fri 02:15:29 PM -25.9610 144.7450 100° East 561 646 39,000  Level FlightAware ADS-B
Fri 02:16:25 PM -25.9780 144.8530 100° East 561 646 39,000  Level FlightAware ADS-B
Fri 02:17:05 PM -26.0040 145.0170 100° East 559 643 39,000  Level FlightAware ADS-B
Fri 02:17:43 PM -26.0210 145.1250 100° East 559 643 39,000  Level FlightAware ADS-B
Fri 02:18:31 PM -26.0420 145.2600 100° East 556 640 39,000  Level FlightAware ADS-B
Fri 02:19:11 PM -26.0600 145.3760 100° East 556 640 39,000  Level FlightAware ADS-B
Fri 02:19:55 PM -26.0790 145.5000 100° East 555 639 39,000  Level FlightAware ADS-B
Fri 02:20:33 PM -26.0950 145.6040 100° East 555 639 39,000  Level FlightAware ADS-B
Fri 02:21:17 PM -26.1140 145.7300 100° East 555 639 39,000  Level FlightAware ADS-B
Fri 02:21:59 PM -26.1320 145.8460 100° East 556 640 39,000  Level FlightAware ADS-B
Fri 02:22:41 PM -26.1500 145.9650 100° East 557 641 39,000  Level FlightAware ADS-B
Fri 02:23:23 PM -26.1670 146.0830 99° East 557 641 39,000  Level FlightAware ADS-B
Fri 02:24:07 PM -26.1860 146.2080 100° East 557 641 39,000  Level FlightAware ADS-B
Fri 02:24:45 PM -26.2020 146.3150 99° East 557 641 39,000  Level FlightAware ADS-B
Fri 02:25:26 PM -26.2190 146.4310 99° East 557 641 39,000  Level FlightAware ADS-B
Fri 02:26:11 PM -26.2370 146.5590 99° East 559 643 39,000  Level FlightAware ADS-B
Fri 02:26:53 PM -26.2550 146.6780 100° East 559 643 39,000  Level FlightAware ADS-B
Fri 02:27:37 PM -26.2730 146.8060 99° East 558 642 39,000  Level FlightAware ADS-B
Fri 02:28:18 PM -26.2890 146.9170 99° East 557 641 39,000  Level FlightAware ADS-B
Fri 02:29:11 PM -26.3080 147.0550 99° East 556 640 39,000  Level FlightAware ADS-B
Fri 02:30:11 PM -26.3260 147.2000 98° East 556 640 39,000 160 Level FlightAware ADS-B
Fri 02:30:26 PM -26.3410 147.2835 98° East 550 633 39,200 200 Climbing Aus ATC (RADAR)
Fri 02:31:11 PM -26.3563 147.4082 98° East 547 629 39,200 -218 Level Aus ATC (RADAR)
Fri 02:31:21 PM -26.3470 147.3690 98° East 556 640 39,000 -226 Descending FlightAware ADS-B
Fri 02:32:04 PM -26.3650 147.4580 103° East 554 638 39,000 160 Level FlightAware ADS-B
Fri 02:32:36 PM -26.3926 147.6507 103° East 555 639 39,200  Climbing Aus ATC (RADAR)
Fri 02:33:05 PM -26.4000 147.7050 103° East 558 642 39,000  Descending FlightAware ADS-B
Fri 02:33:46 PM -26.4182 147.8487 103° East 554 638 39,200  Climbing Aus ATC (RADAR)
Fri 02:33:54 PM -26.4180 147.8420 103° East 558 642 39,000  Descending FlightAware ADS-B
Fri 02:34:51 PM -26.4442 148.0332 103° East 553 636 39,200  Climbing Aus ATC (RADAR)
Fri 02:35:20 PM -26.4450 148.0500 103° East 558 642 39,000  Descending FlightAware ADS-B
Fri 02:35:55 PM -26.4683 148.2177 103° East 553 636 39,200  Climbing Aus ATC (RADAR)
Fri 02:36:03 PM -26.4580 148.1540 103° East 558 642 39,000 -273 Descending FlightAware ADS-B
Fri 02:36:39 PM -26.4690 148.2410 98° East 558 642 39,000 211 Level FlightAware ADS-B
Fri 02:37:00 PM -26.4935 148.4017 98° East 553 636 39,200  Climbing Aus ATC (RADAR)
Fri 02:37:17 PM -26.4810 148.3340 98° East 558 642 39,000 -188 Descending FlightAware ADS-B
Fri 02:38:04 PM -26.5120 148.5340 98° East 553 636 39,000 250 Level FlightAware ADS-B
Fri 02:38:05 PM -26.5210 148.5840 98° East 549 632 39,200  Climbing Aus ATC (RADAR)
Fri 02:38:51 PM -26.5280 148.6470 99° East 553 636 39,000  Descending FlightAware ADS-B
Fri 02:39:15 PM -26.5529 148.7796 99° East 548 631 39,200  Climbing Aus ATC (RADAR)
Fri 02:39:27 PM -26.5400 148.7330 99° East 553 636 39,000 -240 Descending FlightAware ADS-B
Fri 02:40:05 PM -26.5530 148.8240 99° East 553 636 39,000 226 Level FlightAware ADS-B
Fri 02:40:20 PM -26.5813 148.9595 99° East 542 624 39,200  Climbing Aus ATC (RADAR)
Fri 02:40:48 PM -26.5670 148.9270 99° East 553 636 39,000 -154 Descending FlightAware ADS-B
Fri 02:41:38 PM -26.5840 149.0480 99° East 553 636 39,000  Level FlightAware ADS-B
Fri 02:42:13 PM -26.5960 149.1320 99° East 553 636 39,000 346 Level FlightAware ADS-B
Fri 02:42:30 PM -26.6373 149.3220 99° East 543 625 39,300  Climbing Aus ATC (RADAR)
Fri 02:43:01 PM -26.6130 149.2470 99° East 553 636 39,000 -269 Descending FlightAware ADS-B
Fri 02:43:37 PM -26.6250 149.3330 99° East 553 636 39,000 462 Level FlightAware ADS-B
Fri 02:43:40 PM -26.6666 149.5170 99° East 543 625 39,300  Climbing Aus ATC (RADAR)
Fri 02:44:26 PM -26.6410 149.4510 99° East 553 636 39,000  Descending FlightAware ADS-B
Fri 02:45:00 PM -26.7007 149.7400 99° East 541 623 39,300  Climbing Aus ATC (RADAR)
Fri 02:45:02 PM -26.6540 149.5380 99° East 553 636 39,000 -391 Descending FlightAware ADS-B
Fri 02:45:46 PM -26.6690 149.6430 99° East 553 636 39,000 290 Level FlightAware ADS-B
Fri 02:46:04 PM -26.7282 149.9211 99° East 542 624 39,300  Climbing Aus ATC (RADAR)
Fri 02:46:46 PM -26.6890 149.7880 99° East 553 636 39,000  Descending FlightAware ADS-B
Fri 02:47:14 PM -26.7576 150.1157 99° East 539 620 39,300  Climbing Aus ATC (RADAR)
Fri 02:47:26 PM -26.7030 149.8840 99° East 553 636 39,000 -353 Descending FlightAware ADS-B
Fri 02:48:05 PM -26.7780 150.2520 103° East 549 632 39,000  Level FlightAware ADS-B
Fri 02:49:00 PM -26.8000 150.4060 99° East 550 633 39,000 228 Level FlightAware ADS-B
Fri 02:49:24 PM -26.8106 150.4795 99° East 544 626 39,300  Climbing Aus ATC (RADAR)
Fri 02:49:45 PM -26.8190 150.5350 99° East 551 634 39,000 -1,385 Descending FlightAware ADS-B
Fri 02:50:29 PM -26.8371 150.6617 99° East 542 624 37,800 -2,111 Descending Aus ATC (RADAR)
Fri 02:50:39 PM -26.8410 150.6840 99° East 553 636 37,100 -2,717 Descending FlightAware ADS-B
Fri 02:51:22 PM -26.8580 150.8040 99° East 556 640 35,400 -2,100 Descending FlightAware ADS-B
Fri 02:51:39 PM -26.8652 150.8603 99° East 546 628 35,000 -2,143 Descending Aus ATC (RADAR)
Fri 02:52:04 PM -26.8760 150.9280 99° East 548 631 33,900 -1,938 Descending FlightAware ADS-B
Fri 02:52:44 PM -26.8911 151.0417 99° East 531 611 32,900 -1,800 Descending Aus ATC (RADAR)
Fri 02:52:44 PM -26.8910 151.0390 99° East 538 619 32,700 -2,133 Descending FlightAware ADS-B
Fri 02:53:29 PM -26.9090 151.1620 99° East 524 603 31,300 -1,624 Descending FlightAware ADS-B
Fri 02:54:09 PM -26.9231 151.2698 99° East 509 586 30,400 -1,800 Descending Aus ATC (RADAR)
Fri 02:54:09 PM -26.9240 151.2670 99° East 514 592 30,100 -1,867 Descending FlightAware ADS-B
Fri 02:54:54 PM -26.9401 151.3857 99° East 493 567 29,000 -1,733 Descending Aus ATC (RADAR)
Fri 02:54:54 PM -26.9400 151.3840 99° East 498 573 28,800 -2,100 Descending FlightAware ADS-B
Fri 02:55:34 PM -26.9540 151.4850 99° East 484 557 27,600 -1,569 Descending FlightAware ADS-B
Fri 02:55:59 PM -26.9622 151.5480 99° East 474 545 27,100 -1,800 Descending Aus ATC (RADAR)
Fri 02:56:14 PM -26.9680 151.5860 99° East 473 544 26,400 -2,000 Descending FlightAware ADS-B
Fri 02:56:59 PM -26.9820 151.6920 98° East 464 534 25,100 -1,652 Descending FlightAware ADS-B
Fri 02:57:23 PM -26.9900 151.7517 98° East 453 521 24,500 -1,950 Descending Aus ATC (RADAR)
Fri 02:57:39 PM -26.9950 151.7860 98° East 454 522 23,800 -2,036 Descending FlightAware ADS-B
Fri 02:58:19 PM -27.0080 151.8780 99° East 445 512 22,600 -1,835 Descending FlightAware ADS-B
Fri 02:59:04 PM -27.0210 151.9790 98° East 434 499 21,200 -1,703 Descending FlightAware ADS-B
Fri 02:59:33 PM -27.0301 152.0461 98° East 422 486 20,500 -1,950 Descending Aus ATC (RADAR)
Fri 02:59:44 PM -27.0330 152.0680 98° East 425 489 19,900 -1,183 Descending FlightAware ADS-B
Fri 03:00:44 PM -27.0410 152.1240 99° East 419 482 19,100 -1,782 Descending FlightAware ADS-B
Fri 03:01:25 PM -27.0610 152.2820 98° East 401 461 16,900 -2,432 Descending FlightAware ADS-B
Fri 03:01:58 PM -27.0702 152.3513 98° East 386 444 16,100 -1,800 Descending Aus ATC (RADAR)
Fri 03:02:05 PM -27.0720 152.3630 98° East 392 451 15,700 -2,000 Descending FlightAware ADS-B
Fri 03:02:46 PM -27.0830 152.4430 99° East 381 438 14,500 -1,692 Descending FlightAware ADS-B
Fri 03:03:23 PM -27.0916 152.5190 99° East 370 426 13,500 -1,909 Descending Aus ATC (RADAR)
Fri 03:03:30 PM -27.0940 152.5300 99° East 370 426 13,100 -1,867 Descending FlightAware ADS-B
Fri 03:04:08 PM -27.1030 152.6028 99° East 356 410 12,100 -1,950 Descending Aus ATC (RADAR)
Fri 03:04:10 PM -27.1040 152.6050 99° East 361 415 11,800 -2,170 Descending FlightAware ADS-B
Fri 03:04:55 PM -27.1140 152.6870 98° East 354 407 10,400 -1,412 Descending FlightAware ADS-B
Fri 03:05:18 PM -27.1190 152.7314 98° East 347 399 10,200 -800 Descending Aus ATC (RADAR)
Fri 03:05:40 PM -27.1250 152.7660 98° East 325 374 9,800 -600 Descending FlightAware ADS-B
Fri 03:06:08 PM -27.1300 152.8110 97° East 298 343 9,700 -556 Descending FlightAware ADS-B
Fri 03:06:34 PM -27.1350 152.8500 98° East 287 330 9,300 -1,472 Descending FlightAware ADS-B
Fri 03:07:01 PM -27.1410 152.8910 99° East 295 339 8,400 -1,636 Descending FlightAware ADS-B
Fri 03:07:29 PM -27.1460 152.9330 98° East 289 333 7,800 -913 Descending FlightAware ADS-B
Fri 03:07:47 PM -27.1490 152.9630 98° East 287 330 7,700 -800 Descending Aus ATC (RADAR)
Fri 03:07:59 PM -27.1520 152.9770 98° East 278 320 7,400 -947 Descending FlightAware ADS-B
Fri 03:08:25 PM -27.1560 153.0130 97° East 262 302 7,100 -632 Descending FlightAware ADS-B
Fri 03:08:37 PM -27.1580 153.0290 98° East 252 290 7,000  Descending FlightAware ADS-B
Fri 03:08:57 PM -27.1610 153.0566 98° East 246 283 7,100 -800 Climbing Aus ATC (RADAR)
Fri 03:09:07 PM -27.1630 153.0650 98° East 229 264 6,600 -2,333 Descending FlightAware ADS-B
Fri 03:09:33 PM -27.1650 153.0960 94° East 229 264 5,700 -1,418 Descending FlightAware ADS-B
Fri 03:10:02 PM -27.1648 153.1326 94° East 219 252 5,300 -1,125 Descending Aus ATC (RADAR)
Fri 03:10:05 PM -27.1650 153.1330 94° East 215 247 5,100 -1,241 Descending FlightAware ADS-B
Fri 03:10:31 PM -27.1650 153.1610 90° East 196 226 4,700 -889 Descending FlightAware ADS-B
Fri 03:10:59 PM -27.1650 153.1880 90° East 181 208 4,300 -1,091 Descending FlightAware ADS-B
Fri 03:11:15 PM -27.1720 153.2000 123° Southeast 179 206 3,900 -1,286 Descending FlightAware ADS-B
Fri 03:11:41 PM -27.1900 153.2140 145° Southeast 183 211 3,400 -1,000 Descending FlightAware ADS-B
Fri 03:12:09 PM -27.2110 153.2240 157° South 188 216 3,000 -682 Descending FlightAware ADS-B
Fri 03:12:25 PM -27.2250 153.2190 198° South 182 209 2,900 -585 Descending FlightAware ADS-B
Fri 03:12:50 PM -27.2440 153.2080 207° Southwest 185 213 2,600 -577 Descending FlightAware ADS-B
Fri 03:13:17 PM -27.2662 153.1964 207° Southwest 188 216 2,400 -1,000 Descending Aus ATC (RADAR)
Fri 03:13:20 PM -27.2680 153.1950 207° Southwest 191 220 2,100 -1,500 Descending FlightAware ADS-B
Fri 03:13:45 PM -27.2870 153.1840 207° Southwest 173 199 1,700 -900 Descending FlightAware ADS-B
Fri 03:14:00 PM -27.2980 153.1780 206° Southwest 160 184 1,500 -486 Descending FlightAware ADS-B
Fri 03:14:22 PM -27.3120 153.1700 206° Southwest 158 182 1,400 -960 Descending Aus ATC (RADAR)
Fri 03:14:25 PM -27.3130 153.1690 206° Southwest 145 167 1,100 -1,304 Descending FlightAware ADS-B
Fri 03:14:45 PM -27.3250 153.1620 207° Southwest 144 166 900 -667 Descending FlightAware ADS-B
Fri 03:15:10 PM -27.3400 153.1540 205° Southwest 142 163 600 -500 Descending FlightAware ADS-B
Fri 03:15:57 PM -27.3670 153.1392 205° Southwest 137 158 300 -242 Descending Aus ATC (RADAR)
Fri 03:16:49 PM -27.3600 153.1430 205° Southwest 135 155 200 -115 Descending FlightAware ADS-B

Login

Don't have an account? Register now (free) for customized features, flight alerts, and more!